createdAt,value
2023-05-03T00:00:33.774Z,94.35
2023-05-03T00:01:33.815Z,94.70
2023-05-03T00:02:33.913Z,95.53
2023-05-03T00:03:33.734Z,95.53
2023-05-03T00:04:33.741Z,95.22
2023-05-03T00:05:33.727Z,95.32
2023-05-03T00:06:33.750Z,95.32
2023-05-03T00:07:33.699Z,95.37
2023-05-03T00:08:33.699Z,95.37
2023-05-03T00:09:33.708Z,95.37
2023-05-03T00:10:33.657Z,95.47
2023-05-03T00:11:33.651Z,95.26
2023-05-03T00:12:33.646Z,95.37
2023-05-03T00:13:33.634Z,95.78
2023-05-03T00:14:34.064Z,95.78
2023-05-03T00:15:33.606Z,95.83
2023-05-03T00:16:33.640Z,95.72
2023-05-03T00:17:33.617Z,96.03
2023-05-03T00:18:33.570Z,95.83
2023-05-03T00:19:33.603Z,95.89
2023-05-03T00:20:33.565Z,95.31
2023-05-03T00:21:33.539Z,95.62
2023-05-03T00:22:33.528Z,95.51
2023-05-03T00:23:33.511Z,95.83
2023-05-03T00:24:33.522Z,95.51
2023-05-03T00:25:33.496Z,95.93
2023-05-03T00:26:33.478Z,96.14
2023-05-03T00:27:33.472Z,96.03
2023-05-03T00:28:33.461Z,96.24
2023-05-03T00:29:33.481Z,96.29
2023-05-03T00:30:33.447Z,96.29
2023-05-03T00:31:33.469Z,96.29
2023-05-03T00:32:33.477Z,96.08
2023-05-03T00:33:33.439Z,96.08
2023-05-03T00:34:33.437Z,96.02
2023-05-03T00:35:33.380Z,96.54
2023-05-03T00:36:34.317Z,96.54
2023-05-03T00:37:33.375Z,96.23
2023-05-03T00:38:33.356Z,96.54
2023-05-03T00:39:33.359Z,96.23
2023-05-03T00:40:33.329Z,96.02
2023-05-03T00:41:33.313Z,96.54
2023-05-03T00:42:33.317Z,97.06
2023-05-03T00:43:33.290Z,96.64
2023-05-03T00:44:33.310Z,96.75
2023-05-03T00:45:33.279Z,96.95
2023-05-03T00:46:33.326Z,96.95
2023-05-03T00:47:33.311Z,97.00
2023-05-03T00:48:33.233Z,96.79
2023-05-03T00:49:33.262Z,96.58
2023-05-03T00:50:33.215Z,97.00
2023-05-03T00:51:33.247Z,96.79
2023-05-03T00:52:33.192Z,96.69
2023-05-03T00:53:33.199Z,97.00
2023-05-03T00:54:33.179Z,96.62
2023-05-03T00:55:33.186Z,96.79
2023-05-03T00:56:40.985Z,97.04
2023-05-03T00:57:34.134Z,96.94
2023-05-03T00:58:33.143Z,96.69
2023-05-03T00:59:33.131Z,96.69
2023-05-03T01:00:33.118Z,96.94
2023-05-03T01:01:33.111Z,96.94
2023-05-03T01:02:33.128Z,96.73
2023-05-03T01:03:33.173Z,97.25
2023-05-03T01:04:33.062Z,97.04
2023-05-03T01:05:33.068Z,97.25
2023-05-03T01:06:33.128Z,97.35
2023-05-03T01:07:33.025Z,97.25
2023-05-03T01:08:33.025Z,97.25
2023-05-03T01:09:33.016Z,97.04
2023-05-03T01:10:32.993Z,97.35
2023-05-03T01:11:32.980Z,96.78
2023-05-03T01:12:32.990Z,97.19
2023-05-03T01:13:32.985Z,97.40
2023-05-03T01:14:32.945Z,97.14
2023-05-03T01:15:32.968Z,96.78
2023-05-03T01:16:33.007Z,97.14
2023-05-03T01:17:32.936Z,96.78
2023-05-03T01:18:32.925Z,96.73
2023-05-03T01:19:32.889Z,96.83
2023-05-03T01:20:32.883Z,96.62
2023-05-03T01:21:32.878Z,96.78
2023-05-03T01:22:32.870Z,96.78
2023-05-03T01:23:33.169Z,97.19
2023-05-03T01:24:32.846Z,96.73
2023-05-03T01:25:32.884Z,96.78
2023-05-03T01:26:32.819Z,96.98
2023-05-03T01:27:32.814Z,96.78
2023-05-03T01:28:32.802Z,96.98
2023-05-03T01:29:32.774Z,96.98
2023-05-03T01:30:32.770Z,97.30
2023-05-03T01:31:32.812Z,97.34
2023-05-03T01:32:32.762Z,97.13
2023-05-03T01:33:32.754Z,97.30
2023-05-03T01:34:32.728Z,97.24
2023-05-03T01:35:32.711Z,97.34
2023-05-03T01:36:32.701Z,97.24
2023-05-03T01:37:32.700Z,97.24
2023-05-03T01:38:32.712Z,97.13
2023-05-03T01:39:32.673Z,96.92
2023-05-03T01:40:32.668Z,97.03
2023-05-03T01:41:32.653Z,97.03
2023-05-03T01:42:32.634Z,97.24
2023-05-03T01:43:32.649Z,97.13
2023-05-03T01:44:32.608Z,96.72
2023-05-03T01:45:32.623Z,97.44
2023-05-03T01:46:32.616Z,97.34
2023-05-03T01:47:32.649Z,97.55
2023-05-03T01:48:32.576Z,97.24
2023-05-03T01:49:32.550Z,97.55
2023-05-03T01:50:32.546Z,97.44
2023-05-03T01:51:32.538Z,97.49
2023-05-03T01:52:32.547Z,96.92
2023-05-03T01:53:32.549Z,97.44
2023-05-03T01:54:32.511Z,97.38
2023-05-03T01:55:32.493Z,96.97
2023-05-03T01:56:32.502Z,97.44
2023-05-03T01:57:32.469Z,97.44
2023-05-03T01:58:32.476Z,97.65
2023-05-03T01:59:32.451Z,97.65
2023-05-03T02:00:32.461Z,97.49
2023-05-03T02:01:32.444Z,97.17
2023-05-03T02:02:32.448Z,97.49
2023-05-03T02:03:32.419Z,97.28
2023-05-03T02:04:32.488Z,97.49
2023-05-03T02:05:32.387Z,97.38
2023-05-03T02:06:32.396Z,97.70
2023-05-03T02:07:32.369Z,97.70
2023-05-03T02:08:32.379Z,97.49
2023-05-03T02:09:32.364Z,97.33
2023-05-03T02:10:32.316Z,97.64
2023-05-03T02:11:32.317Z,97.43
2023-05-03T02:12:32.297Z,97.64
2023-05-03T02:13:32.315Z,97.74
2023-05-03T02:14:32.280Z,97.74
2023-05-03T02:15:32.266Z,97.47
2023-05-03T02:16:32.321Z,97.74
2023-05-03T02:17:32.280Z,97.74
2023-05-03T02:18:32.245Z,97.64
2023-05-03T02:19:32.226Z,97.64
2023-05-03T02:20:32.212Z,97.68
2023-05-03T02:21:32.205Z,97.89
2023-05-03T02:22:32.207Z,97.68
2023-05-03T02:23:32.191Z,97.89
2023-05-03T02:24:32.171Z,97.99
2023-05-03T02:25:32.246Z,97.27
2023-05-03T02:26:32.144Z,97.47
2023-05-03T02:27:32.131Z,97.78
2023-05-03T02:28:32.162Z,97.78
2023-05-03T02:29:32.119Z,97.78
2023-05-03T02:30:32.097Z,97.47
2023-05-03T02:31:32.126Z,97.58
2023-05-03T02:32:32.090Z,97.78
2023-05-03T02:33:32.443Z,97.89
2023-05-03T02:34:32.058Z,97.83
2023-05-03T02:35:32.048Z,98.04
2023-05-03T02:36:32.044Z,97.78
2023-05-03T02:37:32.024Z,98.14
2023-05-03T02:38:32.035Z,97.83
2023-05-03T02:39:32.008Z,98.04
2023-05-03T02:40:31.979Z,97.94
2023-05-03T02:41:31.988Z,97.72
2023-05-03T02:42:31.966Z,97.88
2023-05-03T02:43:31.979Z,97.83
2023-05-03T02:44:33.652Z,97.83
2023-05-03T02:45:31.922Z,98.50
2023-05-03T02:46:31.982Z,98.25
2023-05-03T02:47:31.921Z,97.83
2023-05-03T02:48:31.969Z,97.94
2023-05-03T02:49:31.897Z,98.56
2023-05-03T02:50:31.872Z,98.56
2023-05-03T02:51:31.867Z,98.46
2023-05-03T02:52:31.857Z,98.56
2023-05-03T02:53:31.862Z,98.35
2023-05-03T02:54:31.828Z,98.56
2023-05-03T02:55:31.854Z,98.39
2023-05-03T02:56:31.809Z,98.60
2023-05-03T02:57:31.810Z,98.56
2023-05-03T02:58:31.804Z,98.29
2023-05-03T02:59:31.769Z,98.39
2023-05-03T03:00:31.758Z,98.60
2023-05-03T03:01:31.781Z,98.39
2023-05-03T03:02:31.828Z,98.60
2023-05-03T03:03:31.900Z,98.39
2023-05-03T03:04:31.717Z,98.29
2023-05-03T03:05:31.717Z,98.50
2023-05-03T03:06:31.726Z,98.50
2023-05-03T03:07:31.697Z,98.19
2023-05-03T03:08:31.736Z,98.19
2023-05-03T03:09:31.671Z,98.19
2023-05-03T03:10:31.655Z,98.13
2023-05-03T03:11:31.635Z,98.23
2023-05-03T03:12:31.637Z,98.13
2023-05-03T03:13:31.650Z,98.08
2023-05-03T03:14:31.602Z,98.34
2023-05-03T03:15:31.596Z,98.34
2023-05-03T03:16:31.621Z,98.34
2023-05-03T03:17:31.629Z,98.44
2023-05-03T03:18:31.563Z,99.27
2023-05-03T03:19:31.574Z,98.44
2023-05-03T03:20:31.540Z,99.11
2023-05-03T03:21:31.542Z,98.86
2023-05-03T03:22:31.512Z,99.07
2023-05-03T03:23:31.548Z,99.07
2023-05-03T03:24:31.506Z,99.07
2023-05-03T03:25:31.511Z,99.22
2023-05-03T03:26:31.465Z,99.11
2023-05-03T03:27:31.464Z,99.32
2023-05-03T03:28:31.477Z,98.90
2023-05-03T03:29:31.463Z,98.59
2023-05-03T03:30:31.437Z,98.80
2023-05-03T03:31:31.450Z,98.90
2023-05-03T03:32:31.433Z,98.59
2023-05-03T03:33:31.436Z,98.59
2023-05-03T03:34:31.384Z,98.69
2023-05-03T03:35:31.376Z,98.80
2023-05-03T03:36:31.354Z,99.01
2023-05-03T03:37:31.346Z,98.90
2023-05-03T03:38:31.383Z,98.69
2023-05-03T03:39:31.354Z,98.69
2023-05-03T03:40:31.321Z,98.80
2023-05-03T03:41:31.346Z,98.80
2023-05-03T03:42:31.385Z,98.90
2023-05-03T03:43:31.313Z,98.90
2023-05-03T03:44:31.321Z,99.01
2023-05-03T03:45:31.279Z,99.11
2023-05-03T03:46:31.349Z,98.59
2023-05-03T03:47:31.259Z,98.80
2023-05-03T03:48:31.245Z,98.69
2023-05-03T03:49:31.225Z,98.63
2023-05-03T03:50:31.279Z,99.01
2023-05-03T03:51:31.212Z,98.95
2023-05-03T03:52:31.267Z,98.90
2023-05-03T03:53:31.205Z,98.49
2023-05-03T03:54:31.225Z,99.01
2023-05-03T03:55:31.166Z,98.69
2023-05-03T03:56:31.268Z,98.69
2023-05-03T03:57:31.129Z,98.69
2023-05-03T03:58:31.128Z,99.32
2023-05-03T03:59:31.107Z,99.32
2023-05-03T04:00:31.089Z,98.69
2023-05-03T04:01:31.104Z,99.43
2023-05-03T04:02:31.226Z,99.26
2023-05-03T04:03:31.204Z,99.22
2023-05-03T04:04:31.144Z,99.22
2023-05-03T04:05:31.054Z,99.26
2023-05-03T04:06:31.082Z,99.11
2023-05-03T04:07:31.009Z,99.22
2023-05-03T04:08:31.042Z,99.11
2023-05-03T04:09:30.999Z,99.22
2023-05-03T04:10:30.986Z,99.22
2023-05-03T04:11:30.974Z,99.32
2023-05-03T04:12:30.980Z,99.22
2023-05-03T04:13:30.957Z,99.32
2023-05-03T04:14:30.934Z,99.43
2023-05-03T04:15:30.936Z,99.53
2023-05-03T04:16:30.936Z,99.99
2023-05-03T04:17:30.971Z,99.32
2023-05-03T04:18:30.912Z,99.95
2023-05-03T04:19:30.888Z,99.63
2023-05-03T04:20:30.865Z,99.53
2023-05-03T04:21:30.861Z,99.63
2023-05-03T04:22:30.854Z,99.74
2023-05-03T04:23:30.857Z,99.84
2023-05-03T04:24:30.842Z,99.74
2023-05-03T04:25:30.841Z,99.59
2023-05-03T04:26:32.170Z,99.59
2023-05-03T04:27:30.814Z,99.59
2023-05-03T04:28:30.811Z,99.74
2023-05-03T04:29:30.785Z,99.59
2023-05-03T04:30:30.753Z,99.74
2023-05-03T04:31:30.800Z,99.80
2023-05-03T04:32:30.748Z,99.84
2023-05-03T04:33:30.761Z,99.63
2023-05-03T04:34:30.722Z,99.63
2023-05-03T04:35:30.697Z,99.74
2023-05-03T04:36:30.715Z,99.74
2023-05-03T04:37:30.691Z,99.80
2023-05-03T04:38:30.674Z,99.59
2023-05-03T04:39:30.669Z,99.80
2023-05-03T04:40:30.649Z,99.69
2023-05-03T04:41:30.644Z,99.80
2023-05-03T04:42:30.628Z,99.99
2023-05-03T04:43:30.649Z,99.99
2023-05-03T04:44:30.604Z,99.99
2023-05-03T04:45:30.600Z,99.75
2023-05-03T04:46:30.599Z,99.80
2023-05-03T04:47:30.589Z,99.80
2023-05-03T04:48:33.812Z,99.96
2023-05-03T04:49:30.548Z,99.75
2023-05-03T04:50:30.524Z,99.65
2023-05-03T04:51:30.522Z,99.65
2023-05-03T04:52:30.519Z,99.44
2023-05-03T04:53:30.521Z,99.44
2023-05-03T04:54:30.487Z,99.65
2023-05-03T04:55:30.468Z,99.75
2023-05-03T04:56:30.469Z,99.85
2023-05-03T04:57:30.468Z,99.44
2023-05-03T04:58:30.448Z,99.75
2023-05-03T04:59:30.440Z,99.65
2023-05-03T05:00:30.421Z,99.40
2023-05-03T05:01:30.471Z,99.50
2023-05-03T05:02:30.489Z,99.91
2023-05-03T05:03:30.520Z,99.91
2023-05-03T05:04:30.387Z,99.81
2023-05-03T05:05:30.381Z,99.81
2023-05-03T05:06:30.416Z,99.60
2023-05-03T05:07:30.351Z,99.60
2023-05-03T05:08:30.354Z,99.71
2023-05-03T05:09:30.321Z,99.60
2023-05-03T05:10:30.310Z,99.71
2023-05-03T05:11:30.312Z,99.50
2023-05-03T05:12:30.288Z,99.24
2023-05-03T05:13:30.291Z,99.66
2023-05-03T05:14:30.266Z,99.62
2023-05-03T05:15:30.260Z,99.41
2023-05-03T05:16:30.249Z,99.30
2023-05-03T05:17:30.325Z,99.62
2023-05-03T05:18:30.273Z,99.57
2023-05-03T05:19:30.205Z,99.26
2023-05-03T05:20:30.234Z,99.52
2023-05-03T05:21:30.183Z,99.42
2023-05-03T05:22:30.175Z,99.42
2023-05-03T05:23:30.174Z,99.52
2023-05-03T05:24:30.162Z,99.48
2023-05-03T05:25:30.141Z,99.12
2023-05-03T05:26:30.125Z,99.54
2023-05-03T05:27:30.114Z,98.81
2023-05-03T05:28:30.143Z,98.71
2023-05-03T05:29:30.104Z,98.76
2023-05-03T05:30:30.086Z,98.45
2023-05-03T05:31:30.127Z,98.45
2023-05-03T05:32:30.075Z,98.30
2023-05-03T05:33:30.124Z,98.61
2023-05-03T05:34:36.351Z,97.99
2023-05-03T05:35:31.053Z,98.30
2023-05-03T05:36:30.044Z,98.41
2023-05-03T05:37:30.038Z,98.26
2023-05-03T05:38:30.019Z,98.21
2023-05-03T05:39:30.017Z,98.48
2023-05-03T05:40:29.992Z,97.39
2023-05-03T05:41:29.953Z,97.47
2023-05-03T05:42:29.965Z,96.75
2023-05-03T05:43:29.960Z,95.36
2023-05-03T05:44:29.933Z,94.68
2023-05-03T05:45:29.912Z,94.31
2023-05-03T05:46:29.950Z,93.58
2023-05-03T05:47:29.903Z,93.79
2023-05-03T05:48:29.893Z,93.37
2023-05-03T05:49:29.870Z,93.23
2023-05-03T05:50:29.869Z,92.77
2023-05-03T05:51:29.846Z,91.94
2023-05-03T05:52:29.879Z,91.80
2023-05-03T05:53:29.989Z,91.05
2023-05-03T05:54:30.578Z,88.32
2023-05-03T05:55:29.808Z,86.94
2023-05-03T05:56:29.789Z,85.36
2023-05-03T05:57:29.773Z,84.80
2023-05-03T05:58:29.784Z,83.42
2023-05-03T05:59:29.756Z,81.95
2023-05-03T06:00:29.827Z,80.71
2023-05-03T06:01:29.747Z,79.68
2023-05-03T06:02:29.913Z,79.47
2023-05-03T06:03:29.769Z,80.47
2023-05-03T06:04:29.701Z,79.98
2023-05-03T06:05:29.719Z,79.98
2023-05-03T06:06:29.741Z,79.47
2023-05-03T06:07:29.671Z,79.47
2023-05-03T06:08:29.698Z,76.79
2023-05-03T06:09:29.656Z,76.48
2023-05-03T06:10:29.635Z,76.48
2023-05-03T06:11:29.620Z,77.62
2023-05-03T06:12:29.621Z,77.82
2023-05-03T06:13:29.616Z,78.33
2023-05-03T06:14:29.585Z,78.44
2023-05-03T06:15:29.588Z,77.48
2023-05-03T06:16:29.591Z,78.41
2023-05-03T06:17:29.604Z,78.55
2023-05-03T06:18:29.588Z,78.61
2023-05-03T06:19:29.529Z,78.55
2023-05-03T06:20:29.560Z,78.30
2023-05-03T06:21:29.509Z,78.92
2023-05-03T06:22:29.504Z,79.30
2023-05-03T06:23:29.514Z,79.30
2023-05-03T06:24:29.645Z,79.47
2023-05-03T06:25:29.472Z,79.98
2023-05-03T06:26:29.499Z,80.19
2023-05-03T06:27:29.456Z,80.49
2023-05-03T06:28:29.448Z,79.67
2023-05-03T06:29:29.420Z,80.26
2023-05-03T06:30:29.421Z,78.61
2023-05-03T06:31:29.414Z,77.55
2023-05-03T06:32:29.421Z,78.44
2023-05-03T06:33:29.384Z,78.85
2023-05-03T06:34:29.361Z,77.00
2023-05-03T06:35:29.351Z,77.79
2023-05-03T06:36:29.337Z,78.41
2023-05-03T06:37:29.331Z,79.13
2023-05-03T06:38:29.329Z,79.61
2023-05-03T06:39:29.302Z,80.95
2023-05-03T06:40:29.313Z,81.63
2023-05-03T06:41:29.303Z,82.01
2023-05-03T06:42:29.276Z,81.91
2023-05-03T06:43:29.292Z,80.74
2023-05-03T06:44:29.250Z,80.29
2023-05-03T06:45:29.245Z,79.12
2023-05-03T06:46:29.248Z,78.40
2023-05-03T06:47:29.244Z,78.61
2023-05-03T06:48:29.307Z,78.50
2023-05-03T06:49:29.198Z,79.02
2023-05-03T06:50:29.180Z,77.10
2023-05-03T06:51:29.177Z,76.90
2023-05-03T06:52:29.164Z,77.10
2023-05-03T06:53:29.227Z,76.38
2023-05-03T06:54:29.141Z,76.28
2023-05-03T06:55:29.121Z,76.38
2023-05-03T06:56:29.145Z,75.52
2023-05-03T06:57:29.112Z,76.59
2023-05-03T06:58:29.115Z,76.90
2023-05-03T06:59:29.085Z,76.42
2023-05-03T07:00:29.074Z,77.14
2023-05-03T07:01:29.112Z,77.34
2023-05-03T07:02:29.298Z,77.89
2023-05-03T07:03:29.140Z,79.09
2023-05-03T07:04:29.018Z,79.95
2023-05-03T07:05:29.005Z,80.26
2023-05-03T07:06:29.864Z,80.36
2023-05-03T07:07:28.995Z,80.26
2023-05-03T07:08:28.990Z,80.40
2023-05-03T07:09:42.198Z,80.57
2023-05-03T07:10:31.168Z,81.29
2023-05-03T07:11:28.940Z,81.29
2023-05-03T07:12:28.977Z,81.43
2023-05-03T07:13:28.952Z,81.84
2023-05-03T07:14:28.909Z,81.84
2023-05-03T07:15:28.903Z,81.70
2023-05-03T07:16:28.956Z,81.91
2023-05-03T07:17:28.910Z,81.29
2023-05-03T07:18:28.874Z,81.29
2023-05-03T07:19:28.854Z,81.12
2023-05-03T07:20:28.853Z,81.81
2023-05-03T07:21:28.830Z,81.60
2023-05-03T07:22:28.814Z,81.49
2023-05-03T07:23:29.015Z,81.49
2023-05-03T07:24:28.801Z,81.87
2023-05-03T07:25:28.855Z,81.07
2023-05-03T07:26:28.763Z,81.10
2023-05-03T07:27:28.768Z,79.01
2023-05-03T07:28:28.794Z,76.14
2023-05-03T07:29:28.739Z,77.00
2023-05-03T07:30:28.728Z,78.64
2023-05-03T07:31:28.715Z,78.85
2023-05-03T07:32:28.765Z,78.85
2023-05-03T07:33:28.810Z,78.33
2023-05-03T07:34:28.688Z,78.36
2023-05-03T07:35:28.664Z,78.57
2023-05-03T07:36:28.681Z,78.78
2023-05-03T07:37:28.644Z,76.25
2023-05-03T07:38:28.653Z,75.67
2023-05-03T07:39:28.628Z,77.06
2023-05-03T07:40:28.624Z,76.07
2023-05-03T07:41:28.615Z,76.25
2023-05-03T07:42:28.606Z,77.61
2023-05-03T07:43:28.611Z,78.12
2023-05-03T07:44:28.628Z,76.20
2023-05-03T07:45:28.572Z,74.49
2023-05-03T07:46:28.540Z,74.32
2023-05-03T07:47:28.560Z,73.40
2023-05-03T07:48:28.530Z,71.83
2023-05-03T07:49:28.511Z,69.24
2023-05-03T07:50:28.502Z,69.55
2023-05-03T07:51:28.491Z,70.34
2023-05-03T07:52:28.473Z,69.65
2023-05-03T07:53:28.487Z,69.01
2023-05-03T07:54:28.472Z,69.04
2023-05-03T07:55:28.460Z,65.02
2023-05-03T07:56:28.430Z,66.38
2023-05-03T07:57:28.426Z,67.54
2023-05-03T07:58:38.965Z,67.26
2023-05-03T07:59:29.398Z,67.26
2023-05-03T08:00:28.505Z,68.35
2023-05-03T08:01:28.373Z,66.92
2023-05-03T08:02:28.466Z,67.23
2023-05-03T08:03:28.518Z,67.19
2023-05-03T08:04:28.586Z,67.47
2023-05-03T08:05:28.386Z,67.13
2023-05-03T08:06:28.429Z,66.36
2023-05-03T08:07:28.305Z,67.72
2023-05-03T08:08:28.296Z,68.51
2023-05-03T08:09:28.294Z,67.43
2023-05-03T08:10:28.275Z,65.16
2023-05-03T08:11:28.253Z,62.30
2023-05-03T08:12:28.252Z,59.99
2023-05-03T08:13:28.236Z,60.50
2023-05-03T08:14:28.243Z,61.11
2023-05-03T08:15:28.240Z,61.99
2023-05-03T08:16:28.330Z,61.99
2023-05-03T08:17:28.215Z,61.31
2023-05-03T08:18:28.181Z,63.65
2023-05-03T08:19:28.181Z,61.00
2023-05-03T08:20:28.166Z,62.08
2023-05-03T08:21:28.152Z,63.20
2023-05-03T08:22:28.144Z,61.54
2023-05-03T08:23:28.127Z,62.36
2023-05-03T08:24:28.131Z,62.82
2023-05-03T08:25:28.119Z,63.20
2023-05-03T08:26:28.102Z,62.49
2023-05-03T08:27:28.079Z,61.44
2023-05-03T08:28:28.069Z,62.51
2023-05-03T08:29:28.063Z,58.05
2023-05-03T08:30:28.044Z,58.21
2023-05-03T08:31:28.064Z,60.91
2023-05-03T08:32:28.084Z,58.15
2023-05-03T08:33:28.009Z,56.68
2023-05-03T08:34:28.018Z,59.12
2023-05-03T08:35:27.990Z,60.02
2023-05-03T08:36:27.980Z,59.75
2023-05-03T08:37:27.972Z,61.08
2023-05-03T08:38:27.960Z,59.07
2023-05-03T08:39:27.970Z,58.49
2023-05-03T08:40:27.956Z,57.60
2023-05-03T08:41:30.206Z,59.94
2023-05-03T08:42:27.914Z,61.83
2023-05-03T08:43:27.904Z,62.35
2023-05-03T08:44:28.052Z,62.58
2023-05-03T08:45:27.883Z,62.58
2023-05-03T08:46:27.975Z,62.68
2023-05-03T08:47:27.859Z,62.24
2023-05-03T08:48:30.539Z,62.52
2023-05-03T08:49:27.838Z,62.56
2023-05-03T08:50:27.823Z,61.59
2023-05-03T08:51:27.824Z,61.52
2023-05-03T08:52:27.809Z,61.44
2023-05-03T08:53:27.783Z,61.41
2023-05-03T08:54:27.788Z,60.91
2023-05-03T08:55:27.754Z,60.60
2023-05-03T08:56:27.748Z,61.85
2023-05-03T08:57:27.734Z,61.34
2023-05-03T08:58:27.737Z,61.75
2023-05-03T08:59:27.728Z,62.33
2023-05-03T09:00:27.715Z,63.01
2023-05-03T09:01:27.727Z,61.38
2023-05-03T09:02:27.730Z,61.34
2023-05-03T09:03:27.720Z,62.18
2023-05-03T09:04:27.769Z,62.11
2023-05-03T09:05:27.643Z,60.89
2023-05-03T09:06:27.684Z,61.91
2023-05-03T09:07:27.620Z,61.54
2023-05-03T09:08:27.609Z,61.14
2023-05-03T09:09:27.616Z,63.12
2023-05-03T09:10:27.592Z,61.66
2023-05-03T09:11:27.596Z,61.74
2023-05-03T09:12:27.592Z,60.38
2023-05-03T09:13:27.558Z,59.03
2023-05-03T09:14:27.560Z,59.62
2023-05-03T09:15:27.528Z,58.63
2023-05-03T09:16:27.652Z,57.61
2023-05-03T09:17:27.515Z,57.61
2023-05-03T09:18:27.506Z,60.02
2023-05-03T09:19:27.680Z,58.91
2023-05-03T09:20:27.533Z,57.08
2023-05-03T09:21:27.465Z,55.99
2023-05-03T09:22:27.451Z,57.00
2023-05-03T09:23:27.462Z,57.00
2023-05-03T09:24:27.448Z,59.24
2023-05-03T09:25:27.421Z,57.81
2023-05-03T09:26:27.409Z,59.95
2023-05-03T09:27:27.387Z,59.41
2023-05-03T09:28:27.389Z,59.69
2023-05-03T09:29:27.409Z,58.29
2023-05-03T09:30:27.361Z,57.97
2023-05-03T09:31:27.389Z,58.70
2023-05-03T09:32:27.373Z,57.35
2023-05-03T09:33:27.341Z,56.24
2023-05-03T09:34:27.328Z,57.34
2023-05-03T09:35:27.302Z,57.10
2023-05-03T09:36:27.321Z,58.60
2023-05-03T09:37:27.281Z,58.37
2023-05-03T09:38:27.308Z,58.34
2023-05-03T09:39:27.301Z,56.11
2023-05-03T09:40:27.258Z,56.06
2023-05-03T09:41:27.241Z,57.92
2023-05-03T09:42:27.223Z,57.56
2023-05-03T09:43:27.237Z,57.35
2023-05-03T09:44:27.233Z,57.76
2023-05-03T09:45:27.185Z,57.97
2023-05-03T09:46:27.253Z,56.44
2023-05-03T09:47:30.617Z,57.03
2023-05-03T09:48:27.166Z,58.17
2023-05-03T09:49:27.164Z,58.71
2023-05-03T09:50:27.136Z,59.75
2023-05-03T09:51:27.147Z,60.57
2023-05-03T09:52:27.179Z,61.74
2023-05-03T09:53:27.101Z,61.27
2023-05-03T09:54:27.108Z,60.18
2023-05-03T09:55:27.078Z,61.40
2023-05-03T09:56:27.061Z,59.34
2023-05-03T09:57:27.053Z,61.24
2023-05-03T09:58:27.039Z,61.08
2023-05-03T09:59:27.057Z,57.98
2023-05-03T10:00:27.025Z,59.20
2023-05-03T10:01:27.055Z,55.76
2023-05-03T10:02:27.038Z,55.76
2023-05-03T10:03:27.029Z,56.87
2023-05-03T10:04:27.047Z,56.18
2023-05-03T10:05:26.971Z,56.67
2023-05-03T10:06:27.050Z,58.69
2023-05-03T10:07:26.965Z,55.96
2023-05-03T10:08:27.003Z,56.13
2023-05-03T10:09:26.937Z,55.93
2023-05-03T10:10:26.911Z,55.93
2023-05-03T10:11:26.928Z,56.23
2023-05-03T10:12:26.897Z,55.10
2023-05-03T10:13:26.919Z,55.10
2023-05-03T10:14:26.885Z,55.19
2023-05-03T10:15:26.855Z,55.50
2023-05-03T10:16:26.963Z,56.21
2023-05-03T10:17:35.826Z,56.54
2023-05-03T10:18:27.831Z,55.65
2023-05-03T10:19:26.823Z,56.34
2023-05-03T10:20:26.796Z,55.63
2023-05-03T10:21:26.792Z,55.10
2023-05-03T10:22:26.768Z,55.63
2023-05-03T10:23:26.766Z,55.43
2023-05-03T10:24:26.884Z,56.34
2023-05-03T10:25:26.788Z,55.85
2023-05-03T10:26:26.742Z,58.09
2023-05-03T10:27:26.719Z,58.87
2023-05-03T10:28:26.717Z,56.95
2023-05-03T10:29:26.720Z,56.34
2023-05-03T10:30:26.678Z,54.97
2023-05-03T10:31:26.737Z,55.40
2023-05-03T10:32:26.694Z,56.39
2023-05-03T10:33:26.658Z,56.36
2023-05-03T10:34:26.678Z,59.17
2023-05-03T10:35:26.631Z,55.63
2023-05-03T10:36:30.738Z,55.52
2023-05-03T10:37:27.610Z,55.52
2023-05-03T10:38:26.599Z,58.49
2023-05-03T10:39:26.593Z,57.24
2023-05-03T10:40:26.597Z,56.54
2023-05-03T10:41:26.560Z,56.21
2023-05-03T10:42:26.543Z,56.64
2023-05-03T10:43:26.541Z,58.64
2023-05-03T10:44:26.551Z,57.90
2023-05-03T10:45:26.534Z,55.24
2023-05-03T10:46:26.581Z,59.27
2023-05-03T10:47:26.574Z,56.00
2023-05-03T10:48:26.486Z,53.90
2023-05-03T10:49:26.558Z,55.15
2023-05-03T10:50:26.458Z,52.59
2023-05-03T10:51:26.453Z,55.15
2023-05-03T10:52:26.426Z,55.73
2023-05-03T10:53:26.425Z,57.73
2023-05-03T10:54:26.426Z,57.32
2023-05-03T10:55:26.392Z,55.17
2023-05-03T10:56:26.472Z,54.79
2023-05-03T10:57:26.384Z,55.60
2023-05-03T10:58:26.361Z,55.15
2023-05-03T10:59:26.383Z,55.55
2023-05-03T11:00:26.342Z,56.16
2023-05-03T11:01:26.349Z,55.45
2023-05-03T11:02:26.338Z,58.06
2023-05-03T11:03:26.311Z,56.82
2023-05-03T11:04:26.367Z,55.04
2023-05-03T11:05:26.303Z,55.32
2023-05-03T11:06:26.328Z,56.21
2023-05-03T11:07:26.269Z,55.15
2023-05-03T11:08:26.264Z,55.65
2023-05-03T11:09:26.264Z,55.35
2023-05-03T11:10:26.246Z,56.82
2023-05-03T11:11:26.240Z,56.01
2023-05-03T11:12:26.247Z,56.41
2023-05-03T11:13:26.317Z,55.80
2023-05-03T11:14:26.226Z,57.20
2023-05-03T11:15:26.176Z,58.59
2023-05-03T11:16:26.199Z,55.65
2023-05-03T11:17:26.228Z,57.32
2023-05-03T11:18:26.149Z,55.90
2023-05-03T11:19:26.159Z,55.57
2023-05-03T11:20:26.140Z,55.47
2023-05-03T11:21:26.126Z,53.96
2023-05-03T11:22:26.103Z,55.27
2023-05-03T11:23:26.108Z,55.57
2023-05-03T11:24:26.085Z,55.07
2023-05-03T11:25:26.055Z,55.47
2023-05-03T11:26:26.580Z,55.27
2023-05-03T11:27:26.063Z,57.54
2023-05-03T11:28:26.065Z,55.11
2023-05-03T11:29:26.065Z,55.42
2023-05-03T11:30:26.005Z,53.88
2023-05-03T11:31:26.066Z,55.09
2023-05-03T11:32:26.009Z,53.60
2023-05-03T11:33:25.964Z,53.34
2023-05-03T11:34:25.970Z,55.80
2023-05-03T11:35:25.948Z,54.05
2023-05-03T11:36:25.935Z,56.38
2023-05-03T11:37:25.920Z,56.82
2023-05-03T11:38:25.924Z,55.60
2023-05-03T11:39:25.954Z,55.57
2023-05-03T11:40:25.906Z,53.65
2023-05-03T11:41:25.872Z,54.08
2023-05-03T11:42:25.865Z,55.68
2023-05-03T11:43:25.867Z,56.08
2023-05-03T11:44:25.884Z,55.27
2023-05-03T11:45:25.849Z,55.19
2023-05-03T11:46:25.913Z,55.70
2023-05-03T11:47:25.870Z,53.83
2023-05-03T11:48:25.919Z,55.65
2023-05-03T11:49:25.819Z,55.63
2023-05-03T11:50:25.769Z,55.70
2023-05-03T11:51:25.877Z,55.57
2023-05-03T11:52:25.746Z,55.65
2023-05-03T11:53:25.806Z,54.08
2023-05-03T11:54:27.436Z,55.47
2023-05-03T11:55:25.728Z,57.29
2023-05-03T11:56:25.707Z,55.04
2023-05-03T11:57:25.702Z,55.52
2023-05-03T11:58:25.691Z,55.49
2023-05-03T11:59:25.729Z,54.89
2023-05-03T12:00:25.696Z,53.98
2023-05-03T12:01:25.725Z,53.30
2023-05-03T12:02:25.805Z,53.90
2023-05-03T12:03:30.526Z,53.78
2023-05-03T12:04:25.880Z,53.98
2023-05-03T12:05:25.768Z,54.79
2023-05-03T12:06:26.629Z,55.16
2023-05-03T12:07:26.900Z,53.70
2023-05-03T12:08:26.168Z,53.42
2023-05-03T12:09:26.998Z,54.11
2023-05-03T12:10:26.692Z,54.08
2023-05-03T12:11:27.170Z,55.22
2023-05-03T12:12:30.356Z,57.83
2023-05-03T12:13:26.965Z,55.60
2023-05-03T12:14:25.607Z,54.82
2023-05-03T12:15:26.775Z,55.43
2023-05-03T12:16:25.637Z,56.10
2023-05-03T12:17:27.508Z,54.89
2023-05-03T12:19:25.754Z,54.82
2023-05-03T12:21:04.955Z,56.03
2023-05-03T12:21:31.114Z,55.90
2023-05-03T12:22:27.001Z,55.50
2023-05-03T12:23:26.688Z,55.40
2023-05-03T12:24:26.868Z,55.19
2023-05-03T12:25:27.242Z,55.10
2023-05-03T12:26:26.032Z,54.46
2023-05-03T12:27:28.044Z,54.69
2023-05-03T12:28:25.469Z,54.59
2023-05-03T12:29:25.587Z,55.10
2023-05-03T12:30:26.647Z,56.08
2023-05-03T12:31:28.833Z,57.80
2023-05-03T12:32:25.458Z,57.07
2023-05-03T12:33:28.190Z,55.07
2023-05-03T12:36:26.250Z,55.90
2023-05-03T12:37:27.361Z,53.80
2023-05-03T12:38:25.718Z,56.34
2023-05-03T12:39:27.507Z,56.71
2023-05-03T12:42:27.653Z,55.19
2023-05-03T12:43:25.256Z,55.90
2023-05-03T12:44:28.696Z,56.89
2023-05-03T12:45:28.166Z,55.90
2023-05-03T12:46:34.644Z,55.63
2023-05-03T12:47:29.100Z,55.55
2023-05-03T12:48:25.546Z,56.95
2023-05-03T12:49:25.297Z,56.13
2023-05-03T12:50:25.329Z,56.21
2023-05-03T12:52:36.364Z,55.60
2023-05-03T12:53:26.475Z,54.89
2023-05-03T12:54:27.097Z,55.10
2023-05-03T12:55:26.049Z,56.08
2023-05-03T12:56:25.978Z,55.37
2023-05-03T12:57:26.657Z,53.37
2023-05-03T12:58:49.821Z,54.71